Gahagan, Louisiana
Current Conditions -  °F | °C
As of 5:15 AM on Wednesday 26 Nov 2014 (Local Time) from KIER Reporting Station
Clear Clear  
Wind Chill: 37°   Ceiling: Unl
Heat Index: 41°   Visibility: 10mi
Dew Point: 36°   Wind: 6mph
Humidity: 82%   Direction: 220°SW
Pressure: 30.16"   Gusts: NA
Location:  32.1001°N, 93.2912°W
Report Text: KIER 261115Z AUTO 22005KT 10SM CLR 05/02 A3016 RMK AO2 T00480020
Loading
Personal Weather Stations






























Interactive Weather Map New forecast layout! Learn more

10-Day Weather Forecast

Advertisements
Track Severe Weather on mobile